Portada
METAR-TAF:

METAR-TAF

Aeroports :

Lublin, Polònia

latitud: 51-13-55N, longitud: 22-41-25E, altitud: 203 m

Observació

L'informe es va fer fa 22 minuts, a les 01:00 UTC
Vent 13 kt del Oest
Temperatura -2°C
Humitat 100%
Pressió 1018 hPa
Visibilitat: 8000 m

METAR: EPLB 250100Z 26013KT 8000 NSC M02/M02 Q1018

Hora: 02:22 (01:22 UTC)

Pronòstic

L'informe es va fer fa 1 hora i 52 minuts, a les 23:30 UTC
Pronòstic vàlid del 25 a les 00 UTC al 25 a les 09 UTC
Vent 11 kt del Oest/Sud-Oest
Visibilitat: 7000 m
Evolucionant progressivament
l' 25 a les 00 UTC al 25 a les 03 UTC
Cel ennuvolat a una alçada de 1400 ft
Probabilitat 40% :
Temporalment
l' 25 a les 02 UTC al 25 a les 09 UTC
Cel ennuvolat a una alçada de 700 ft
neu, pluja

TAF: EPLB 242330Z 2500/2509 25011KT 7000 NSC BECMG 2500/2503 BKN014 PROB40 TEMPO 2502/2509 -SNRA BKN007

Observacions i pronòstics meteorològics de més de 4000 aeroports (METAR i TAF).

Les estacions disponibles són els punts grocs i vermells al mapa.

Posi el ratolí al punt desitjat per veure el nom de l'estació.

Feu clic per veure les observacions i els pronòstics meteorològics.

Per canviar el mapa: feu clic els botons verds amb una creu de color negre per apropar; al botó verd amb un guió per allunyar la imatge; o en les fletxes verdes per a mapes adjacents.


METAR-TAF: